Aérodrome :
LOGIN :

S'inscrire | Disclaimer

   EN    FR    IT 

 










Légende :    VFR   VFR Marginal   IFR   IFR Intensif   IFR Très Intensif
Visi : 
Plafond : 
>= 8 km
>= 3000ft
5 à 8 km
1000 à 3000 ft
1500m à 5 km
500 à 1000 ft
800 à 1500m
200 à 500 ft
< 800m
< 200 ft
Symboles :   Orages  Brouillard  Fortes neiges  Fortes précipitations  Vent > 20 kt
SIGMETs :   Divers  Orages  Givrage  Turbulence  Onde Orograph.  Cendres Volcan.






- Altitude de l'aérodrome : 3782 ft
- Code IATA : OZZ


GMMZ - Ouarzazate Int.

DERNIER METAR :
  • 051000Z 09003KT 360V150 CAVOK 20/M03 Q1022 NOSIG

METARs EXPIRÉS :
  • 050900Z 08004KT CAVOK 17/M04 Q1022 NOSIG
  • 050800Z 07003KT 040V100 CAVOK 15/M03 Q1021 NOSIG

TAF TAF GMMZ
Valide du 05 à 06h jusqu'au 06 à 12h UTC


050500Z 0506/0612 18008KT CAVOK



MET'MAP, la Météo Aéronautique d'un coup d'oeil ! - Copyright ORBIFLY Décembre 2007 - Disclaimer

ORBIFLY MET'MAP TEAM :

Programmation & Développement : Alexandra Zaïnal
Sur une idée originale de : Baudouin d'Aumeries
Assistance à la programmation : Marc-Olivier Méhu
Soutien technique & logistique : Manuel Goepfert

Contact : metmap@orbifly.com




SOURCES & CREDITS :

   NOAA